Time;durP1;ratioP1;P1;durP2;ratioP2;P2;SDS_P1;SDS_P2;PMS_P1;PMS_P2;Temp;Humidity;BMP_temperature;BMP_pressure;BME280_temperature;BME280_humidity;BME280_pressure;Samples;Min_cycle;Max_cycle;Signal;HPM_P1;HPM_P2
2023/02/05 00:01:46;;;;;;;4.90;2.38;;;;;;;0.80;47.24;103667.28;4970585;28;20054;-70
2023/02/05 00:04:11;;;;;;;5.07;2.50;;;;;;;0.87;47.16;103660.69;4960848;28;20034;-66
2023/02/05 00:06:37;;;;;;;5.03;2.25;;;;;;;0.84;47.64;103658.00;4959741;28;20423;-68
2023/02/05 00:09:02;;;;;;;6.80;3.15;;;;;;;0.86;47.36;103641.81;4961778;28;20042;-68
2023/02/05 00:11:28;;;;;;;3.80;2.25;;;;;;;0.82;47.18;103631.31;4956676;28;20038;-65
2023/02/05 00:13:53;;;;;;;5.72;3.10;;;;;;;0.69;47.68;103628.16;4958467;28;20038;-69
2023/02/05 00:16:21;;;;;;;5.90;2.92;;;;;;;0.64;47.73;103631.34;4971446;28;20761;-69
2023/02/05 00:18:47;;;;;;;6.03;2.38;;;;;;;0.68;47.58;103623.84;4977128;28;20166;-68
2023/02/05 00:21:14;;;;;;;4.63;2.70;;;;;;;0.75;47.30;103627.56;4975769;28;20066;-66
2023/02/05 00:23:39;;;;;;;4.97;2.10;;;;;;;0.54;48.03;103622.31;4969089;28;20045;-72
2023/02/05 00:26:06;;;;;;;5.10;2.30;;;;;;;0.73;47.85;103612.88;4961328;28;20038;-72
2023/02/05 00:28:33;;;;;;;5.18;3.45;;;;;;;0.74;47.65;103615.50;4961272;28;20042;-72
2023/02/05 00:30:59;;;;;;;3.75;2.70;;;;;;;0.84;47.33;103611.66;4969444;28;21002;-72
2023/02/05 00:33:24;;;;;;;4.07;2.72;;;;;;;0.88;47.33;103621.25;4959607;28;20038;-72
2023/02/05 00:35:50;;;;;;;7.45;2.83;;;;;;;0.95;47.23;103609.53;4959531;28;20038;-72
2023/02/05 00:38:15;;;;;;;3.45;2.63;;;;;;;0.90;47.55;103611.91;4959524;28;20030;-73
2023/02/05 00:40:42;;;;;;;5.43;3.25;;;;;;;0.94;47.63;103613.81;4961766;28;20508;-73
2023/02/05 00:43:08;;;;;;;3.67;2.38;;;;;;;1.03;47.35;103614.19;4966822;28;20575;-77
2023/02/05 00:45:34;;;;;;;4.90;3.15;;;;;;;1.01;47.51;103605.53;4976821;28;20038;-77
2023/02/05 00:48:03;;;;;;;3.67;2.85;;;;;;;1.15;47.11;103610.41;5008689;28;20038;-76
2023/02/05 00:50:29;;;;;;;4.75;2.47;;;;;;;1.05;47.50;103601.41;4964473;28;20375;-78
2023/02/05 00:52:55;;;;;;;5.70;2.83;;;;;;;0.98;47.76;103605.41;4979700;28;20040;-77
2023/02/05 00:55:21;;;;;;;3.58;2.50;;;;;;;1.09;47.35;103585.28;4981793;28;20338;-77
2023/02/05 00:57:47;;;;;;;4.25;2.72;;;;;;;0.81;47.72;103573.75;4966782;28;20034;-79
2023/02/05 01:00:13;;;;;;;5.18;2.58;;;;;;;0.93;47.69;103576.00;4968584;28;20972;-75
2023/02/05 01:02:38;;;;;;;3.78;2.47;;;;;;;1.10;46.84;103563.81;4967417;28;20312;-76
2023/02/05 01:05:04;;;;;;;4.75;2.00;;;;;;;1.10;47.38;103561.25;4963953;28;20455;-76
2023/02/05 01:07:29;;;;;;;7.18;2.83;;;;;;;0.91;47.32;103564.75;4973037;28;20065;-76
2023/02/05 01:09:55;;;;;;;4.82;2.95;;;;;;;0.92;47.49;103563.91;4963759;28;20395;-72
2023/02/05 01:12:20;;;;;;;5.07;2.92;;;;;;;0.62;48.17;103546.31;4978979;28;20053;-74
2023/02/05 01:14:46;;;;;;;7.15;3.22;;;;;;;1.04;47.50;103538.72;4965310;28;20065;-75
2023/02/05 01:17:11;;;;;;;5.40;2.55;;;;;;;0.99;47.31;103539.31;4978010;28;20836;-77
2023/02/05 01:19:37;;;;;;;7.22;2.75;;;;;;;0.73;47.89;103553.66;4968076;28;20073;-78
2023/02/05 01:22:03;;;;;;;8.32;3.00;;;;;;;1.05;47.23;103561.06;4972276;28;20042;-77
2023/02/05 01:24:28;;;;;;;4.05;2.97;;;;;;;1.06;47.47;103556.78;4958312;28;20461;-76
2023/02/05 01:26:56;;;;;;;3.92;2.80;;;;;;;0.63;47.95;103565.22;4970575;28;20388;-77
2023/02/05 01:29:22;;;;;;;6.07;2.88;;;;;;;1.08;47.35;103566.38;4961798;28;20328;-76
2023/02/05 01:31:47;;;;;;;5.93;2.65;;;;;;;1.20;47.28;103570.28;4974223;28;20030;-75
2023/02/05 01:34:13;;;;;;;6.50;2.25;;;;;;;0.95;47.79;103574.38;5008251;28;20065;-76
2023/02/05 01:36:39;;;;;;;5.43;2.78;;;;;;;0.85;48.01;103567.91;4979492;28;20035;-76
2023/02/05 01:39:04;;;;;;;4.15;2.95;;;;;;;1.22;47.09;103572.09;4980344;28;20187;-75
2023/02/05 01:41:29;;;;;;;4.20;2.72;;;;;;;0.68;48.17;103569.78;4978652;28;20038;-75
2023/02/05 01:44:05;;;;;;;4.57;1.90;;;;;;;1.09;47.58;103573.25;4974864;28;20034;-76
2023/02/05 01:46:33;;;;;;;5.63;3.20;;;;;;;1.23;47.03;103571.25;4966480;28;20039;-76
2023/02/05 01:48:59;;;;;;;4.55;2.70;;;;;;;1.16;47.48;103565.81;4966879;28;20043;-77
2023/02/05 01:51:29;;;;;;;4.82;2.88;;;;;;;1.27;47.14;103554.25;4970772;28;20130;-77
2023/02/05 01:53:54;;;;;;;5.50;3.20;;;;;;;1.18;47.22;103548.72;4984834;28;20599;-77
2023/02/05 01:56:25;;;;;;;7.55;4.65;;;;;;;1.09;47.32;103550.06;4971011;28;20039;-77
2023/02/05 01:58:57;;;;;;;3.70;2.50;;;;;;;1.07;47.75;103538.81;4974834;28;20039;-78
2023/02/05 02:01:24;;;;;;;5.50;2.58;;;;;;;1.16;47.53;103522.00;4985658;28;20195;-77
2023/02/05 02:03:53;;;;;;;3.88;3.10;;;;;;;1.28;47.31;103522.50;4977882;28;20042;-77
2023/02/05 02:06:19;;;;;;;6.20;3.50;;;;;;;1.21;47.67;103513.63;4985371;28;20588;-77
2023/02/05 02:08:45;;;;;;;9.23;3.22;;;;;;;1.18;47.52;103510.06;5004230;28;20047;-79
2023/02/05 02:11:16;;;;;;;7.22;3.10;;;;;;;1.31;47.58;103504.59;4979416;28;20519;-78
2023/02/05 02:13:44;;;;;;;6.65;2.72;;;;;;;1.31;47.76;103514.91;4953885;28;20045;-78
2023/02/05 02:16:10;;;;;;;4.60;2.72;;;;;;;1.28;47.73;103507.03;4973199;28;20031;-79
2023/02/05 02:18:38;;;;;;;8.48;3.75;;;;;;;1.18;47.36;103502.34;4965334;28;20030;-79
2023/02/05 02:21:21;;;;;;;4.82;3.20;;;;;;;1.31;47.05;103494.31;4975327;28;20085;-79
2023/02/05 02:24:08;;;;;;;2.80;2.55;;;;;;;1.22;47.51;103488.78;4975872;28;20050;-81
2023/02/05 02:26:59;;;;;;;4.03;2.63;;;;;;;1.15;47.66;103479.00;4973779;28;20114;-78
2023/02/05 02:29:33;;;;;;;4.47;2.83;;;;;;;1.15;47.58;103491.91;5005570;28;20039;-82
2023/02/05 02:32:09;;;;;;;5.70;2.83;;;;;;;1.20;47.59;103482.69;4977672;28;20038;-80
2023/02/05 02:34:48;;;;;;;4.90;3.20;;;;;;;1.19;47.70;103492.06;4971473;28;20083;-80
2023/02/05 02:37:21;;;;;;;4.50;3.30;;;;;;;0.81;48.92;103495.63;4974135;28;20486;-78
2023/02/05 02:39:52;;;;;;;4.80;2.83;;;;;;;1.17;48.09;103492.84;4979847;28;20038;-80
2023/02/05 02:42:31;;;;;;;4.03;2.85;;;;;;;1.31;47.74;103486.56;4975227;28;20457;-79
2023/02/05 02:45:03;;;;;;;6.72;3.10;;;;;;;1.41;47.48;103477.53;4969046;28;20034;-79
2023/02/05 02:47:31;;;;;;;;;;;;;;;1.23;47.66;103472.47;4978814;28;20391;-79
2023/02/05 02:50:00;;;;;;;5.43;3.40;;;;;;;1.32;47.84;103471.16;4985940;28;19921;-76
2023/02/05 02:52:30;;;;;;;5.43;3.63;;;;;;;1.32;47.73;103466.00;4961405;28;20105;-75
2023/02/05 02:55:00;;;;;;;6.95;2.97;;;;;;;1.22;47.59;103455.28;4960986;28;20483;-75
2023/02/05 02:57:28;;;;;;;6.47;3.20;;;;;;;1.29;47.82;103455.56;4970073;28;20038;-74
2023/02/05 02:59:58;;;;;;;6.22;2.72;;;;;;;1.36;47.49;103455.84;4969162;28;20442;-75
2023/02/05 03:02:28;;;;;;;4.20;3.28;;;;;;;1.35;47.86;103442.06;4979113;28;20504;-75
2023/02/05 03:05:02;;;;;;;4.35;3.05;;;;;;;1.28;48.02;103434.88;4963432;28;20039;-75
2023/02/05 03:07:36;;;;;;;5.95;2.75;;;;;;;1.34;47.91;103435.16;4964236;28;20038;-75
2023/02/05 03:10:15;;;;;;;6.70;3.95;;;;;;;1.24;48.02;103428.75;4961576;28;20039;-74
2023/02/05 03:12:41;;;;;;;5.65;2.97;;;;;;;1.26;47.89;103429.69;4993582;28;20034;-75
2023/02/05 03:15:08;;;;;;;8.30;3.53;;;;;;;1.24;47.99;103427.88;4969397;28;20084;-74
2023/02/05 03:17:36;;;;;;;4.18;2.83;;;;;;;1.20;48.18;103428.56;4951962;28;20084;-75
2023/02/05 03:20:19;;;;;;;4.75;2.72;;;;;;;1.16;48.14;103429.28;4960473;28;20168;-74
2023/02/05 03:22:45;;;;;;;4.53;3.20;;;;;;;1.23;48.03;103431.25;4962497;28;20127;-74
2023/02/05 03:25:11;;;;;;;6.65;3.30;;;;;;;1.30;48.06;103435.84;4993596;28;20466;-75
2023/02/05 03:27:38;;;;;;;7.05;3.65;;;;;;;1.42;47.84;103444.09;4961422;28;20776;-74
2023/02/05 03:30:06;;;;;;;3.50;3.05;;;;;;;1.24;48.01;103445.91;4961412;28;20039;-73
2023/02/05 03:32:42;;;;;;;4.60;3.08;;;;;;;1.44;47.72;103447.63;4963148;28;20034;-73
2023/02/05 03:36:00;;;;;;;5.43;3.80;;;;;;;1.48;47.78;103449.50;4975347;28;20039;-75
2023/02/05 03:39:09;;;;;;;5.32;3.25;;;;;;;1.30;48.34;103449.63;4947214;28;20054;-72
2023/02/05 03:41:55;;;;;;;3.80;3.30;;;;;;;1.38;48.27;103451.63;4960350;28;21353;-80
2023/02/05 03:44:45;;;;;;;5.07;3.08;;;;;;;1.01;50.02;103450.13;5000370;28;20038;-78
2023/02/05 03:47:24;;;;;;;7.38;3.15;;;;;;;1.14;49.47;103447.22;4973708;28;20125;-75
2023/02/05 03:49:59;;;;;;;4.88;3.33;;;;;;;0.94;50.52;103446.41;4980205;28;20504;-74
2023/02/05 03:52:32;;;;;;;5.82;3.97;;;;;;;0.83;51.25;103442.50;4990270;28;20038;-75
2023/02/05 03:55:19;;;;;;;10.55;4.65;;;;;;;0.81;51.60;103439.84;4976144;28;20034;-70
2023/02/05 03:57:59;;;;;;;5.07;3.05;;;;;;;0.74;51.88;103429.25;4967213;28;20500;-69
2023/02/05 04:00:27;;;;;;;8.45;3.85;;;;;;;0.62;52.73;103421.91;4957886;28;20051;-68
2023/02/05 04:02:53;;;;;;;5.65;3.65;;;;;;;0.52;53.25;103428.34;4966876;28;20664;-71
2023/02/05 04:05:24;;;;;;;6.53;4.28;;;;;;;0.60;52.85;103421.84;4962642;28;20442;-71
2023/02/05 04:07:52;;;;;;;7.38;4.70;;;;;;;0.49;53.15;103418.78;4962084;28;20322;-67
2023/02/05 04:10:20;;;;;;;5.32;4.03;;;;;;;0.55;53.62;103418.19;4948125;28;20110;-69
2023/02/05 04:12:46;;;;;;;5.72;4.05;;;;;;;0.30;54.23;103415.34;4964604;28;20586;-67
2023/02/05 04:15:12;;;;;;;6.93;4.68;;;;;;;0.45;54.14;103421.16;4967028;28;20038;-68
2023/02/05 04:17:42;;;;;;;8.50;4.35;;;;;;;0.15;55.13;103407.88;4963327;28;20058;-67
2023/02/05 04:20:09;;;;;;;8.23;4.65;;;;;;;0.20;55.17;103404.66;4991882;28;20527;-68
2023/02/05 04:22:34;;;;;;;6.40;4.70;;;;;;;0.10;55.69;103397.38;4974180;28;20042;-71
2023/02/05 04:25:00;;;;;;;7.40;5.43;;;;;;;0.01;55.25;103390.13;4968190;28;20046;-71
2023/02/05 04:27:25;;;;;;;5.05;4.55;;;;;;;0.20;55.46;103398.66;4954354;28;20022;-73
2023/02/05 04:29:52;;;;;;;8.10;5.65;;;;;;;0.28;55.60;103392.16;4963029;28;20463;-75
2023/02/05 04:32:18;;;;;;;7.93;5.05;;;;;;;0.54;54.67;103400.09;4963673;28;20035;-74
2023/02/05 04:34:45;;;;;;;8.95;5.30;;;;;;;0.27;55.31;103398.97;4964108;28;20031;-66
2023/02/05 04:37:11;;;;;;;10.48;5.90;;;;;;;0.37;55.50;103399.41;4964595;28;20571;-66
2023/02/05 04:39:38;;;;;;;9.55;6.07;;;;;;;0.12;56.41;103392.28;4970652;28;20036;-69
2023/02/05 04:42:03;;;;;;;6.80;4.90;;;;;;;0.36;55.56;103389.91;4965630;28;20395;-71
2023/02/05 04:44:29;;;;;;;9.07;6.43;;;;;;;0.25;55.55;103387.75;4964126;28;20730;-72
2023/02/05 04:46:54;;;;;;;10.70;5.20;;;;;;;0.40;55.53;103386.66;4964559;28;20031;-71
2023/02/05 04:49:20;;;;;;;9.48;5.72;;;;;;;0.30;56.20;103380.25;4963706;28;20054;-64
2023/02/05 04:51:45;;;;;;;10.55;6.13;;;;;;;0.41;55.83;103379.00;4964362;28;20057;-70
2023/02/05 04:54:11;;;;;;;9.30;6.38;;;;;;;0.37;55.89;103382.25;4963383;28;20070;-67
2023/02/05 04:56:37;;;;;;;11.40;7.07;;;;;;;0.34;56.05;103376.09;4962839;28;20321;-67
2023/02/05 04:59:03;;;;;;;12.90;6.75;;;;;;;0.34;56.19;103388.97;4973926;28;20042;-65
2023/02/05 05:01:28;;;;;;;8.93;5.80;;;;;;;0.50;55.79;103383.63;4981816;28;20034;-65
2023/02/05 05:03:53;;;;;;;10.55;6.20;;;;;;;0.35;56.02;103368.44;4962802;28;20181;-68
2023/02/05 05:06:19;;;;;;;10.18;6.82;;;;;;;0.39;55.75;103377.16;4963499;28;20080;-66
2023/02/05 05:08:45;;;;;;;9.32;5.68;;;;;;;0.54;55.78;103375.25;4965391;28;20098;-69
2023/02/05 05:11:17;;;;;;;10.38;6.75;;;;;;;0.42;56.34;103374.75;4982594;28;20093;-66
2023/02/05 05:13:42;;;;;;;10.43;5.70;;;;;;;0.45;55.90;103365.44;4952818;28;20045;-66
2023/02/05 05:16:09;;;;;;;9.75;6.30;;;;;;;0.33;56.46;103370.06;4966364;28;20038;-69
2023/02/05 05:18:36;;;;;;;12.65;6.43;;;;;;;0.53;55.77;103368.34;4963674;28;21470;-74
2023/02/05 05:21:02;;;;;;;8.35;6.43;;;;;;;0.41;56.33;103363.56;4966246;28;20038;-65
2023/02/05 05:23:27;;;;;;;9.55;6.25;;;;;;;0.30;56.75;103349.38;4963448;28;20035;-69
2023/02/05 05:25:53;;;;;;;9.10;6.13;;;;;;;0.44;56.39;103363.69;4962311;28;20042;-69
2023/02/05 05:28:18;;;;;;;11.25;6.28;;;;;;;0.36;56.77;103361.59;4963008;28;20038;-68
2023/02/05 05:30:45;;;;;;;11.27;6.60;;;;;;;0.34;56.87;103363.22;4961941;28;20046;-68
2023/02/05 05:33:11;;;;;;;8.98;5.55;;;;;;;0.54;56.35;103369.22;4994978;28;20524;-67
2023/02/05 05:35:37;;;;;;;9.77;6.47;;;;;;;0.49;56.65;103366.44;4958432;28;20125;-69
2023/02/05 05:38:03;;;;;;;11.10;6.55;;;;;;;0.07;57.76;103361.22;4964612;28;20097;-68
2023/02/05 05:46:04;;;;;;;10.75;6.68;;;;;;;0.52;56.41;103364.00;4983330;28;20161;-69
2023/02/05 05:48:29;;;;;;;12.90;7.20;;;;;;;0.54;56.49;103358.94;4983919;28;20042;-70
2023/02/05 05:50:55;;;;;;;12.55;6.82;;;;;;;0.70;56.13;103351.00;4995278;28;20037;-68
2023/02/05 05:53:20;;;;;;;10.07;6.78;;;;;;;0.57;56.48;103348.75;4961279;28;20112;-68
2023/02/05 05:55:46;;;;;;;11.60;6.85;;;;;;;0.51;56.90;103341.66;4964015;28;20125;-69
2023/02/05 05:58:12;;;;;;;11.82;7.22;;;;;;;0.78;55.92;103335.88;4963807;28;20047;-66
2023/02/05 06:00:38;;;;;;;14.50;7.20;;;;;;;0.76;55.83;103327.22;4962676;28;20414;-69
2023/02/05 06:03:04;;;;;;;11.80;6.18;;;;;;;0.68;56.05;103320.06;4969202;28;20038;-70
2023/02/05 06:05:31;;;;;;;11.70;6.70;;;;;;;0.84;56.02;103308.69;4954168;28;20027;-69
2023/02/05 06:07:57;;;;;;;12.77;7.00;;;;;;;0.88;56.19;103313.16;4963349;28;20035;-71
2023/02/05 06:10:23;;;;;;;14.95;6.47;;;;;;;0.40;57.09;103315.47;4962013;28;20050;-67
2023/02/05 06:12:49;;;;;;;11.35;7.32;;;;;;;0.56;56.98;103306.69;4961050;28;20076;-70
2023/02/05 06:15:15;;;;;;;16.83;7.60;;;;;;;0.79;56.34;103299.00;4962960;28;20500;-69
2023/02/05 06:17:41;;;;;;;12.45;7.13;;;;;;;0.85;56.34;103315.59;4963731;28;20046;-68
2023/02/05 06:20:07;;;;;;;11.23;6.90;;;;;;;0.58;57.42;103314.50;4962929;28;20046;-69
2023/02/05 06:22:32;;;;;;;10.82;6.88;;;;;;;0.67;56.67;103313.16;4963502;28;20046;-68
2023/02/05 06:24:58;;;;;;;14.25;8.00;;;;;;;0.83;56.11;103300.91;4991424;28;20832;-68
2023/02/05 06:27:23;;;;;;;10.65;5.90;;;;;;;0.86;56.30;103299.34;4963709;28;20094;-68
2023/02/05 06:29:48;;;;;;;10.23;7.75;;;;;;;0.96;55.93;103297.13;4959353;28;20510;-68
2023/02/05 06:32:14;;;;;;;11.68;7.78;;;;;;;0.96;56.03;103298.00;4964813;28;20038;-70
2023/02/05 06:34:39;;;;;;;13.82;7.78;;;;;;;0.87;56.39;103298.50;4958897;28;20085;-69
2023/02/05 06:37:06;;;;;;;12.07;7.40;;;;;;;0.84;56.66;103297.53;4965541;28;20162;-71
2023/02/05 06:39:31;;;;;;;14.65;7.32;;;;;;;0.70;56.94;103299.53;4961893;28;20500;-69
2023/02/05 06:41:56;;;;;;;13.05;6.97;;;;;;;0.83;56.70;103303.47;4963918;28;20061;-73
2023/02/05 06:44:23;;;;;;;16.38;8.27;;;;;;;0.74;56.97;103301.41;4960624;28;20104;-72
2023/02/05 06:46:48;;;;;;;13.05;7.88;;;;;;;0.82;56.87;103312.03;4994265;28;20026;-72
2023/02/05 06:49:14;;;;;;;13.23;7.53;;;;;;;0.86;56.81;103301.91;4953728;28;20525;-73
2023/02/05 06:51:39;;;;;;;12.25;7.85;;;;;;;0.96;56.42;103305.72;4961482;28;20042;-72
2023/02/05 06:54:04;;;;;;;12.85;8.02;;;;;;;0.95;56.43;103316.84;4965447;28;20508;-72
2023/02/05 06:56:30;;;;;;;14.63;8.30;;;;;;;0.96;56.34;103313.44;4959811;28;20456;-68
2023/02/05 06:58:55;;;;;;;12.43;7.15;;;;;;;0.96;56.19;103312.56;4952575;28;20325;-71
2023/02/05 07:01:21;;;;;;;15.43;8.57;;;;;;;1.01;55.94;103299.03;4960697;28;20661;-71
2023/02/05 07:03:47;;;;;;;12.80;7.82;;;;;;;1.05;55.88;103310.34;4961413;28;20070;-71
2023/02/05 07:06:13;;;;;;;10.73;7.50;;;;;;;1.05;55.80;103310.34;4961094;28;20118;-67
2023/02/05 07:08:38;;;;;;;18.08;7.57;;;;;;;0.95;56.53;103310.78;4961657;28;20030;-70
2023/02/05 07:11:04;;;;;;;13.98;7.80;;;;;;;0.96;56.11;103308.28;4963849;28;20412;-76
2023/02/05 07:13:29;;;;;;;12.60;8.45;;;;;;;0.96;56.43;103308.28;4989036;28;20042;-69
2023/02/05 07:15:55;;;;;;;18.77;8.63;;;;;;;0.95;56.30;103305.66;4960393;28;20035;-67
2023/02/05 07:18:20;;;;;;;9.60;6.93;;;;;;;0.91;56.49;103312.38;4960574;28;20504;-68
2023/02/05 07:20:47;;;;;;;16.58;7.88;;;;;;;0.95;56.24;103313.38;4977438;28;20545;-85
2023/02/05 07:23:12;;;;;;;15.40;8.50;;;;;;;0.99;56.15;103322.97;4973081;28;20038;-83
2023/02/05 07:25:38;;;;;;;13.25;7.95;;;;;;;1.02;56.16;103329.13;4977790;28;20465;-81
2023/02/05 07:28:05;;;;;;;14.20;8.20;;;;;;;0.94;56.45;103338.25;4977093;28;20073;-80
2023/02/05 07:30:31;;;;;;;14.32;7.90;;;;;;;1.03;56.10;103346.34;4979294;28;20031;-81
2023/02/05 07:32:56;;;;;;;10.70;7.00;;;;;;;0.98;55.90;103347.88;5011072;28;20045;-81
2023/02/05 07:35:22;;;;;;;14.00;7.70;;;;;;;1.03;56.30;103356.63;4997881;28;20022;-82
2023/02/05 07:37:47;;;;;;;11.10;7.45;;;;;;;0.92;56.92;103359.63;4983569;28;20057;-68
2023/02/05 07:40:13;;;;;;;13.20;8.40;;;;;;;0.92;56.70;103360.47;4973222;28;20862;-68
2023/02/05 07:42:39;;;;;;;15.25;7.78;;;;;;;0.93;56.46;103363.97;4967249;28;20388;-68
2023/02/05 07:45:06;;;;;;;9.77;7.35;;;;;;;1.04;56.41;103371.28;4997295;28;20042;-68
2023/02/05 07:47:32;;;;;;;17.88;8.45;;;;;;;1.07;56.21;103379.13;4971192;28;20069;-69
2023/02/05 07:49:58;;;;;;;14.93;8.00;;;;;;;1.10;56.39;103379.28;4971972;28;20517;-69
2023/02/05 07:52:24;;;;;;;11.00;7.47;;;;;;;1.20;56.20;103384.78;4968287;28;20070;-70
2023/02/05 07:54:49;;;;;;;14.63;8.52;;;;;;;1.25;56.04;103388.41;4963923;28;20045;-68
2023/02/05 07:57:15;;;;;;;12.48;8.10;;;;;;;1.29;55.97;103395.44;4967149;28;20050;-68
2023/02/05 07:59:40;;;;;;;12.75;8.35;;;;;;;1.36;55.91;103407.75;4966799;28;20046;-68
2023/02/05 08:02:07;;;;;;;14.90;7.95;;;;;;;1.41;56.10;103406.25;4966489;28;20034;-69
2023/02/05 08:04:33;;;;;;;14.23;8.27;;;;;;;1.42;56.00;103408.03;4964447;28;20050;-69
2023/02/05 08:06:58;;;;;;;16.38;9.00;;;;;;;1.45;55.87;103415.84;4965968;28;20030;-69
2023/02/05 08:09:24;;;;;;;14.18;8.05;;;;;;;1.50;56.30;103416.91;4966376;28;20135;-68
2023/02/05 08:11:50;;;;;;;13.50;8.70;;;;;;;1.56;56.12;103425.72;4966902;28;20026;-68
2023/02/05 08:14:15;;;;;;;14.63;8.38;;;;;;;1.59;56.19;103425.81;4953442;28;20034;-68
2023/02/05 08:16:41;;;;;;;11.45;8.07;;;;;;;1.63;56.00;103435.44;4966410;28;20092;-70
2023/02/05 08:19:15;;;;;;;12.98;8.82;;;;;;;1.66;55.88;103440.69;4966908;28;20538;-70
2023/02/05 08:21:40;;;;;;;12.77;8.63;;;;;;;1.63;55.84;103448.31;4969761;28;20061;-71
2023/02/05 08:24:06;;;;;;;12.05;8.05;;;;;;;1.66;56.02;103456.16;4967026;28;20566;-71
2023/02/05 08:26:31;;;;;;;15.60;9.40;;;;;;;1.72;55.98;103449.56;4973622;28;20555;-71
2023/02/05 08:28:58;;;;;;;13.73;8.50;;;;;;;1.77;55.91;103462.63;4956207;28;20094;-70
2023/02/05 08:31:24;;;;;;;18.63;10.13;;;;;;;1.77;56.00;103457.47;4971958;28;20035;-68
2023/02/05 08:33:51;;;;;;;12.63;8.82;;;;;;;1.78;55.52;103454.06;4996586;28;20522;-68
2023/02/05 08:36:17;;;;;;;17.02;8.63;;;;;;;1.76;55.80;103460.88;4965111;28;20039;-69
2023/02/05 08:38:42;;;;;;;14.10;9.20;;;;;;;1.75;55.94;103464.25;4965470;28;20672;-69
2023/02/05 08:41:12;;;;;;;15.45;8.85;;;;;;;1.81;56.10;103469.66;4966814;28;20038;-67
2023/02/05 08:43:42;;;;;;;15.70;9.63;;;;;;;1.88;55.61;103474.22;4965116;28;20045;-69
2023/02/05 08:46:09;;;;;;;14.10;8.45;;;;;;;1.79;55.41;103471.28;4983164;28;20153;-69
2023/02/05 08:48:35;;;;;;;11.85;8.15;;;;;;;1.76;55.80;103481.50;4963362;28;20213;-68
2023/02/05 08:51:00;;;;;;;11.90;8.57;;;;;;;1.81;55.98;103481.69;4966513;28;20078;-68
2023/02/05 08:53:26;;;;;;;17.48;9.27;;;;;;;1.79;56.04;103486.75;4966206;28;20046;-67
2023/02/05 08:56:00;;;;;;;14.13;9.10;;;;;;;1.93;55.77;103495.94;4965544;28;20085;-68
2023/02/05 08:58:26;;;;;;;14.73;9.00;;;;;;;1.91;55.63;103497.56;4962427;28;20073;-70
2023/02/05 09:00:52;;;;;;;17.50;9.77;;;;;;;1.96;55.37;103492.59;4963924;28;20038;-69
2023/02/05 09:03:17;;;;;;;13.15;8.57;;;;;;;1.86;55.53;103493.94;4964661;28;20042;-69
2023/02/05 09:05:43;;;;;;;14.55;9.85;;;;;;;2.04;55.75;103492.84;4966541;28;20038;-68
2023/02/05 09:08:09;;;;;;;14.60;8.82;;;;;;;2.03;55.82;103506.59;4996212;28;20038;-69
2023/02/05 09:10:35;;;;;;;17.20;9.80;;;;;;;1.93;55.93;103507.94;4964391;28;20038;-68
2023/02/05 09:13:00;;;;;;;20.55;11.10;;;;;;;1.98;55.90;103492.66;4964282;28;20035;-70
2023/02/05 09:15:25;;;;;;;14.00;10.00;;;;;;;2.06;55.75;103504.13;4968236;28;20404;-71
2023/02/05 09:17:51;;;;;;;16.05;8.80;;;;;;;1.98;55.72;103519.31;4967696;28;20137;-67
2023/02/05 09:20:16;;;;;;;15.75;8.85;;;;;;;1.75;56.22;103514.97;4968146;28;20121;-68
2023/02/05 09:22:42;;;;;;;15.02;10.00;;;;;;;1.74;56.14;103511.50;4967151;28;20753;-71
2023/02/05 09:25:08;;;;;;;15.35;10.05;;;;;;;1.90;55.96;103515.56;4969454;28;20442;-67
2023/02/05 09:27:33;;;;;;;16.08;9.70;;;;;;;1.91;56.05;103518.19;4968606;28;20110;-67
2023/02/05 09:29:59;;;;;;;16.85;10.70;;;;;;;1.78;56.38;103528.88;4969240;28;20038;-68
2023/02/05 09:32:24;;;;;;;16.75;9.85;;;;;;;2.01;55.97;103531.44;4969652;28;20113;-68
2023/02/05 09:34:49;;;;;;;20.05;10.18;;;;;;;1.92;56.45;103529.41;4966334;28;20039;-67
2023/02/05 09:37:16;;;;;;;24.60;11.73;;;;;;;2.05;56.41;103534.19;4969739;28;20090;-70
2023/02/05 09:39:41;;;;;;;14.80;10.07;;;;;;;2.16;56.29;103534.63;4967163;28;20030;-68
2023/02/05 09:42:19;;;;;;;19.35;10.43;;;;;;;2.35;56.51;103541.34;4999506;28;20066;-70
2023/02/05 09:44:57;;;;;;;17.05;8.88;;;;;;;2.49;56.10;103544.44;4966008;28;20042;-71
2023/02/05 09:47:37;;;;;;;17.23;10.13;;;;;;;2.18;57.73;103542.44;4965986;28;20038;-70
2023/02/05 09:50:17;;;;;;;19.00;8.88;;;;;;;2.57;57.50;103549.03;4965196;28;20038;-69
2023/02/05 09:52:49;;;;;;;14.43;8.07;;;;;;;2.74;57.22;103541.03;4965873;28;20110;-69
2023/02/05 09:55:24;;;;;;;14.48;8.63;;;;;;;2.77;58.06;103544.59;4960328;28;20070;-68
2023/02/05 09:57:54;;;;;;;18.08;7.18;;;;;;;2.89;57.77;103553.59;4973954;28;20042;-70
2023/02/05 10:00:31;;;;;;;10.23;4.88;;;;;;;3.11;57.71;103556.13;4967051;28;20034;-69
2023/02/05 10:03:27;;;;;;;6.18;3.28;;;;;;;3.23;57.77;103572.88;4965096;28;20039;-69
2023/02/05 10:06:11;;;;;;;7.75;1.67;;;;;;;3.16;58.28;103574.38;4963297;28;22355;-70
2023/02/05 10:08:42;;;;;;;9.98;0.98;;;;;;;3.30;58.18;103574.88;4971172;28;20103;-69
2023/02/05 10:11:24;;;;;;;3.90;0.52;;;;;;;3.44;57.40;103583.94;4966540;28;20038;-68
2023/02/05 10:14:16;;;;;;;3.58;0.30;;;;;;;3.57;57.24;103575.75;4982944;28;20058;-69
2023/02/05 10:16:45;;;;;;;;;;;;;;;3.80;56.46;103573.91;4978765;28;20225;-69
2023/02/05 10:19:37;;;;;;;10.02;0.60;;;;;;;3.65;57.28;103583.78;4964890;28;19921;-68
2023/02/05 10:22:11;;;;;;;5.40;0.40;;;;;;;3.55;57.42;103587.75;4966009;28;20700;-70
2023/02/05 10:25:11;;;;;;;19.85;0.80;;;;;;;3.36;57.84;103588.88;4964883;28;20528;-70
2023/02/05 10:27:48;;;;;;;15.80;1.70;;;;;;;3.49;57.52;103591.84;4965089;28;20420;-68
2023/02/05 10:30:55;;;;;;;4.43;1.10;;;;;;;3.58;57.64;103593.06;4966961;28;20269;-69
2023/02/05 10:33:47;;;;;;;10.55;0.82;;;;;;;3.30;58.86;103600.72;4965089;28;20047;-70
2023/02/05 10:36:13;;;;;;;;;;;;;;;3.78;57.48;103598.88;4968149;28;20154;-68
2023/02/05 10:38:43;;;;;;;9.98;1.25;;;;;;;4.05;56.96;103604.84;4965925;28;19926;-69
2023/02/05 10:41:29;;;;;;;13.00;1.65;;;;;;;4.12;56.65;103599.94;4970083;28;20408;-69
2023/02/05 10:44:12;;;;;;;24.90;1.10;;;;;;;4.13;56.49;103598.22;4967955;28;20061;-69
2023/02/05 10:46:39;;;;;;;12.35;0.82;;;;;;;3.93;57.05;103584.66;4963313;28;20057;-69
2023/02/05 10:49:17;;;;;;;15.90;1.80;;;;;;;4.13;56.53;103593.03;4966102;28;20133;-69
2023/02/05 10:51:44;;;;;;;8.55;0.65;;;;;;;3.96;56.97;103596.00;4964113;28;20042;-69
2023/02/05 10:54:29;;;;;;;20.17;1.48;;;;;;;4.18;56.40;103597.50;4964846;28;20077;-69
2023/02/05 10:56:57;;;;;;;11.85;1.33;;;;;;;4.01;57.06;103604.78;4966050;28;20095;-69
2023/02/05 10:59:27;;;;;;;13.18;1.35;;;;;;;4.18;56.32;103607.00;4962943;28;20512;-69
2023/02/05 11:01:54;;;;;;;13.63;1.73;;;;;;;3.89;56.77;103614.72;4964127;28;20053;-68
2023/02/05 11:04:33;;;;;;;12.63;1.58;;;;;;;3.99;56.69;103634.91;4965906;28;20034;-69
2023/02/05 11:07:04;;;;;;;15.85;1.98;;;;;;;4.20;55.85;103636.38;4972513;28;20780;-69
2023/02/05 11:09:32;;;;;;;12.30;1.25;;;;;;;4.27;55.72;103637.47;4965257;28;20042;-70
2023/02/05 11:12:24;;;;;;;12.07;1.38;;;;;;;4.49;54.96;103634.69;4967054;28;20488;-68
2023/02/05 11:14:57;;;;;;;23.05;1.35;;;;;;;4.50;54.68;103649.41;4965449;28;20046;-69
2023/02/05 11:17:29;;;;;;;21.92;1.77;;;;;;;4.25;55.29;103650.34;4965937;28;20049;-75
2023/02/05 11:20:01;;;;;;;21.10;2.28;;;;;;;3.97;55.99;103654.66;4965748;28;20046;-70
2023/02/05 11:22:28;;;;;;;26.70;2.03;;;;;;;4.30;55.48;103653.97;4975225;28;20063;-69
2023/02/05 11:25:16;;;;;;;23.98;2.38;;;;;;;3.89;55.79;103645.78;4979877;28;20042;-70
2023/02/05 11:27:49;;;;;;;12.55;3.03;;;;;;;4.18;55.20;103648.41;4981493;28;20491;-69
2023/02/05 11:30:24;;;;;;;22.25;1.95;;;;;;;3.81;55.99;103657.59;4971907;28;20046;-69
2023/02/05 11:32:50;;;;;;;17.52;2.05;;;;;;;4.36;54.84;103649.00;4965941;28;20109;-69
2023/02/05 11:35:21;;;;;;;16.77;1.98;;;;;;;4.57;54.25;103647.88;4963938;28;20046;-69
2023/02/05 11:37:54;;;;;;;23.67;1.95;;;;;;;4.86;54.04;103647.84;4965095;28;20038;-69
2023/02/05 11:40:23;;;;;;;19.15;1.58;;;;;;;4.76;53.80;103650.16;4963641;28;20573;-68
2023/02/05 11:43:01;;;;;;;18.00;2.35;;;;;;;4.77;53.63;103645.88;4971274;28;20039;-69
2023/02/05 11:45:28;;;;;;;18.40;1.95;;;;;;;4.89;53.13;103638.47;4965943;28;20426;-68